Terminal Aerodrome Forecast
Issued by NWS Atlanta, GA

Home | Current Version | Previous Version | Text Only | Print | Product List | Glossary On
Versions: 1 2 3 4 5 6 7 8 9 10 11 12 13 14
000
FTUS42 KFFC 300200 AAA
TAFMCN
TAF AMD
KMCN 300233Z 3003/3024 VRB03KT P6SM BKN080
     FM301500 14005KT P6SM SCT030 BKN060 PROB30 3017/3023 6SM TSRA
      BKN045CB=

USA.gov is the U.S. government's official web portal to all federal, state and local government web resources and services.